Time;durP1;ratioP1;P1;durP2;ratioP2;P2;SDS_P1;SDS_P2;PMS_P1;PMS_P2;Temp;Humidity;BMP_temperature;BMP_pressure;BME280_temperature;BME280_humidity;BME280_pressure;Samples;Min_cycle;Max_cycle;Signal;HPM_P1;HPM_P2
2022/10/07 00:02:16;;;;;;;24.52;16.00;;;;;;;;;;4937285;29;20035;-75
2022/10/07 00:05:03;;;;;;;22.92;14.70;;;;;;;;;;4943295;29;20497;-75
2022/10/07 00:07:48;;;;;;;25.95;15.00;;;;;;;;;;4936421;29;20051;-77
2022/10/07 00:10:38;;;;;;;47.53;27.35;;;;;;;;;;4936796;29;20048;-76
2022/10/07 00:13:24;;;;;;;34.15;20.42;;;;;;;;;;4936454;29;20044;-75
2022/10/07 00:16:12;;;;;;;40.75;22.73;;;;;;;;;;4937088;29;20048;-75
2022/10/07 00:18:59;;;;;;;39.95;21.83;;;;;;;;;;4936393;29;20039;-76
2022/10/07 00:21:46;;;;;;;51.10;27.15;;;;;;;;;;4936139;29;20048;-75
2022/10/07 00:24:31;;;;;;;52.60;26.27;;;;;;;;;;4936335;29;20517;-76
2022/10/07 00:27:17;;;;;;;63.03;26.80;;;;;;;;;;4936167;29;20051;-76
2022/10/07 00:30:04;;;;;;;43.28;22.10;;;;;;;;;;4942937;29;20047;-76
2022/10/07 00:32:49;;;;;;;46.83;22.98;;;;;;;;;;4936612;29;20482;-76
2022/10/07 00:35:35;;;;;;;35.72;19.02;;;;;;;;;;4935742;29;20091;-76
2022/10/07 00:38:20;;;;;;;37.80;18.05;;;;;;;;;;4936428;29;20048;-76
2022/10/07 00:41:08;;;;;;;29.63;15.02;;;;;;;;;;4942075;29;20052;-76
2022/10/07 00:43:54;;;;;;;25.52;16.48;;;;;;;;;;4936359;29;20047;-76
2022/10/07 00:46:39;;;;;;;26.05;15.40;;;;;;;;;;4936357;29;20397;-76
2022/10/07 00:49:27;;;;;;;35.45;17.23;;;;;;;;;;4935711;29;20418;-76
2022/10/07 00:52:15;;;;;;;29.67;17.23;;;;;;;;;;4936404;29;20036;-76
2022/10/07 00:55:04;;;;;;;27.55;16.42;;;;;;;;;;4936024;29;20048;-76
2022/10/07 00:57:53;;;;;;;28.20;15.07;;;;;;;;;;4942554;29;20489;-76
2022/10/07 01:00:39;;;;;;;29.80;15.27;;;;;;;;;;4936685;29;20043;-76
2022/10/07 01:03:25;;;;;;;25.13;13.95;;;;;;;;;;4935912;29;20040;-76
2022/10/07 01:06:10;;;;;;;19.65;12.88;;;;;;;;;;4941706;29;20055;-76
2022/10/07 01:08:57;;;;;;;20.75;12.68;;;;;;;;;;4936362;29;20048;-75
2022/10/07 01:11:57;;;;;;;22.95;12.27;;;;;;;;;;4942104;29;20036;-75
2022/10/07 01:14:49;;;;;;;18.15;12.13;;;;;;;;;;4941398;29;20414;-75
2022/10/07 01:17:42;;;;;;;28.23;14.32;;;;;;;;;;4935867;29;20490;-75
2022/10/07 01:20:36;;;;;;;30.27;16.88;;;;;;;;;;4936507;29;20044;-76
2022/10/07 01:24:00;;;;;;;26.70;13.73;;;;;;;;;;4941834;29;20044;-76
2022/10/07 01:27:08;;;;;;;17.17;10.32;;;;;;;;;;4936074;29;20055;-76
2022/10/07 01:30:02;;;;;;;17.98;10.77;;;;;;;;;;4941733;29;20051;-75
2022/10/07 01:32:58;;;;;;;17.42;10.60;;;;;;;;;;4941815;29;20056;-76
2022/10/07 01:35:49;;;;;;;18.65;11.75;;;;;;;;;;4941065;29;20043;-76
2022/10/07 01:38:38;;;;;;;19.33;12.65;;;;;;;;;;4945547;29;20040;-76
2022/10/07 01:41:25;;;;;;;19.92;13.35;;;;;;;;;;4945300;29;20052;-76
2022/10/07 01:44:11;;;;;;;21.05;12.13;;;;;;;;;;4944975;29;20052;-76
2022/10/07 01:46:57;;;;;;;20.63;12.40;;;;;;;;;;4944522;29;20047;-75
2022/10/07 01:49:43;;;;;;;23.08;11.98;;;;;;;;;;4939079;29;20044;-75
2022/10/07 01:53:03;;;;;;;19.50;10.88;;;;;;;;;;4939209;29;20040;-76
2022/10/07 01:55:49;;;;;;;16.90;10.07;;;;;;;;;;4944310;29;20481;-76
2022/10/07 01:59:12;;;;;;;19.85;12.13;;;;;;;;;;4944651;29;20044;-77
2022/10/07 02:02:17;;;;;;;26.70;14.10;;;;;;;;;;4944370;29;20494;-77
2022/10/07 02:05:25;;;;;;;23.38;12.93;;;;;;;;;;4939318;29;20039;-76
2022/10/07 02:08:29;;;;;;;14.68;7.65;;;;;;;;;;4944069;29;20060;-77
2022/10/07 02:11:22;;;;;;;8.57;7.20;;;;;;;;;;4944303;29;20059;-75
2022/10/07 02:14:22;;;;;;;9.25;6.97;;;;;;;;;;4943974;29;20297;-77
2022/10/07 02:17:16;;;;;;;10.82;7.97;;;;;;;;;;4944184;29;20056;-75
2022/10/07 02:20:08;;;;;;;16.77;9.32;;;;;;;;;;4944249;29;20051;-75
2022/10/07 02:22:58;;;;;;;17.48;11.65;;;;;;;;;;4943737;29;20047;-76
2022/10/07 02:25:49;;;;;;;65.65;32.53;;;;;;;;;;4944256;29;20055;-76
2022/10/07 02:28:39;;;;;;;30.58;15.68;;;;;;;;;;4943801;29;20502;-76
2022/10/07 02:31:30;;;;;;;25.05;14.63;;;;;;;;;;4943982;29;20055;-75
2022/10/07 02:34:20;;;;;;;19.25;10.75;;;;;;;;;;4944192;29;20040;-77
2022/10/07 02:37:13;;;;;;;17.05;10.13;;;;;;;;;;4943430;29;20401;-77
2022/10/07 02:40:01;;;;;;;17.88;10.00;;;;;;;;;;4943688;29;20051;-76
2022/10/07 02:42:57;;;;;;;15.82;9.00;;;;;;;;;;4938416;29;20055;-76
2022/10/07 02:45:48;;;;;;;14.98;9.63;;;;;;;;;;4938167;29;20060;-76
2022/10/07 02:48:49;;;;;;;12.82;8.95;;;;;;;;;;4938733;29;20051;-76
2022/10/07 02:51:40;;;;;;;11.63;8.73;;;;;;;;;;4943209;29;20048;-76
2022/10/07 02:54:41;;;;;;;13.18;8.73;;;;;;;;;;4943994;29;20047;-76
2022/10/07 02:57:30;;;;;;;15.32;11.77;;;;;;;;;;4943123;29;20478;-76
2022/10/07 03:00:16;;;;;;;18.13;10.63;;;;;;;;;;4943378;29;20052;-77
2022/10/07 03:03:06;;;;;;;15.52;9.75;;;;;;;;;;4938290;29;20429;-77
2022/10/07 03:06:08;;;;;;;27.85;13.55;;;;;;;;;;4943198;29;20052;-76
2022/10/07 03:08:56;;;;;;;31.17;15.98;;;;;;;;;;4929842;29;20047;-77
2022/10/07 03:11:42;;;;;;;21.30;12.77;;;;;;;;;;4943018;29;20052;-76
2022/10/07 03:14:29;;;;;;;23.10;12.60;;;;;;;;;;4943046;29;20047;-77
2022/10/07 03:17:17;;;;;;;24.50;13.85;;;;;;;;;;4943246;29;20485;-76
2022/10/07 03:20:06;;;;;;;19.20;13.98;;;;;;;;;;4937340;29;20040;-76
2022/10/07 03:22:50;;;;;;;20.73;13.05;;;;;;;;;;4944109;29;20051;-77
2022/10/07 03:25:37;;;;;;;19.73;13.07;;;;;;;;;;4942613;29;20047;-76
2022/10/07 03:28:25;;;;;;;22.83;13.25;;;;;;;;;;4942656;29;20043;-76
2022/10/07 03:31:13;;;;;;;19.27;12.45;;;;;;;;;;4937540;29;20048;-76
2022/10/07 03:34:04;;;;;;;19.83;12.05;;;;;;;;;;4942191;29;20394;-77
2022/10/07 03:36:49;;;;;;;17.58;11.63;;;;;;;;;;4942916;29;20047;-77
2022/10/07 03:39:35;;;;;;;23.23;13.25;;;;;;;;;;4936878;29;20047;-77
2022/10/07 03:42:20;;;;;;;20.05;13.40;;;;;;;;;;4942596;29;20653;-76
2022/10/07 03:45:07;;;;;;;18.38;12.85;;;;;;;;;;4942729;29;20071;-76
2022/10/07 03:47:52;;;;;;;22.90;14.13;;;;;;;;;;4941927;29;20047;-76
2022/10/07 03:50:37;;;;;;;22.50;13.70;;;;;;;;;;4936932;29;20498;-76
2022/10/07 03:53:25;;;;;;;19.55;12.73;;;;;;;;;;4936771;29;20390;-77
2022/10/07 03:56:10;;;;;;;19.52;13.18;;;;;;;;;;4941405;29;20048;-77
2022/10/07 03:58:58;;;;;;;18.88;11.95;;;;;;;;;;4942024;29;20055;-76
2022/10/07 04:01:44;;;;;;;15.70;10.73;;;;;;;;;;4941744;29;20051;-76
2022/10/07 04:04:29;;;;;;;18.05;10.75;;;;;;;;;;4937023;29;20048;-77
2022/10/07 04:07:16;;;;;;;15.77;10.02;;;;;;;;;;4937665;29;20104;-77
2022/10/07 04:10:02;;;;;;;17.83;10.77;;;;;;;;;;4936945;29;20047;-77
2022/10/07 04:12:47;;;;;;;16.20;10.13;;;;;;;;;;4942070;29;20043;-76
2022/10/07 04:15:33;;;;;;;26.75;10.88;;;;;;;;;;4935255;29;20047;-76
2022/10/07 04:18:19;;;;;;;14.95;10.10;;;;;;;;;;4942185;29;20494;-77
2022/10/07 04:21:05;;;;;;;13.38;10.15;;;;;;;;;;4942196;29;20051;-76
2022/10/07 04:23:51;;;;;;;14.93;10.88;;;;;;;;;;4936091;29;20047;-76
2022/10/07 04:26:37;;;;;;;16.83;11.40;;;;;;;;;;4942156;29;20060;-76
2022/10/07 04:29:22;;;;;;;14.98;9.57;;;;;;;;;;4936032;29;20052;-76
2022/10/07 04:32:07;;;;;;;12.85;10.05;;;;;;;;;;4936441;29;20040;-76
2022/10/07 04:34:53;;;;;;;14.82;9.68;;;;;;;;;;4942804;29;20040;-76
2022/10/07 04:37:40;;;;;;;16.65;11.30;;;;;;;;;;4934827;29;20056;-76
2022/10/07 04:40:26;;;;;;;15.68;11.13;;;;;;;;;;4941968;29;20047;-77
2022/10/07 04:43:18;;;;;;;23.08;14.48;;;;;;;;;;4941237;29;20044;-77
2022/10/07 04:46:10;;;;;;;28.63;15.13;;;;;;;;;;4941519;29;20044;-77
2022/10/07 04:49:00;;;;;;;34.58;19.52;;;;;;;;;;4941523;29;20043;-76
2022/10/07 04:51:46;;;;;;;28.10;16.20;;;;;;;;;;4941200;29;20035;-76
2022/10/07 04:54:32;;;;;;;30.88;15.93;;;;;;;;;;4941608;29;20052;-76
2022/10/07 04:57:19;;;;;;;33.83;19.65;;;;;;;;;;4941387;29;20043;-77
2022/10/07 05:00:08;;;;;;;34.08;19.00;;;;;;;;;;4941466;29;20060;-77
2022/10/07 05:02:54;;;;;;;33.17;19.92;;;;;;;;;;4928640;29;20070;-77
2022/10/07 05:05:45;;;;;;;31.17;18.30;;;;;;;;;;4940873;29;20047;-76
2022/10/07 05:08:31;;;;;;;29.25;18.08;;;;;;;;;;4941329;29;20055;-76
2022/10/07 05:11:17;;;;;;;38.03;22.20;;;;;;;;;;4941906;29;20047;-77
2022/10/07 05:14:10;;;;;;;55.63;28.63;;;;;;;;;;4944880;29;20428;-77
2022/10/07 05:16:56;;;;;;;44.03;22.23;;;;;;;;;;4939913;29;20430;-77
2022/10/07 05:19:46;;;;;;;36.53;21.70;;;;;;;;;;4944568;29;20043;-76
2022/10/07 05:22:32;;;;;;;33.67;18.00;;;;;;;;;;4939308;29;20044;-77
2022/10/07 05:25:18;;;;;;;24.85;15.98;;;;;;;;;;4939954;29;20043;-76
2022/10/07 05:28:05;;;;;;;28.30;14.15;;;;;;;;;;4944376;29;20055;-76
2022/10/07 05:31:00;;;;;;;25.45;11.55;;;;;;;;;;4943506;29;20048;-76
2022/10/07 05:33:48;;;;;;;28.48;17.60;;;;;;;;;;4944581;29;20048;-76
2022/10/07 05:36:35;;;;;;;28.73;16.85;;;;;;;;;;4944558;29;20043;-77
2022/10/07 05:39:22;;;;;;;30.88;18.10;;;;;;;;;;4944698;29;20043;-76
2022/10/07 05:42:12;;;;;;;34.42;19.58;;;;;;;;;;4931355;29;20073;-77
2022/10/07 05:45:03;;;;;;;28.33;19.02;;;;;;;;;;4944699;29;20059;-77
2022/10/07 05:47:49;;;;;;;25.52;17.00;;;;;;;;;;4944419;29;20498;-76
2022/10/07 05:50:34;;;;;;;37.28;18.10;;;;;;;;;;4939950;29;20047;-76
2022/10/07 05:53:19;;;;;;;27.38;15.48;;;;;;;;;;4939264;29;20040;-77
2022/10/07 05:56:06;;;;;;;24.70;14.75;;;;;;;;;;4943782;29;20044;-76
2022/10/07 05:58:51;;;;;;;25.42;16.10;;;;;;;;;;4944592;29;20048;-76
2022/10/07 06:01:39;;;;;;;33.17;15.98;;;;;;;;;;4943724;29;20485;-77
2022/10/07 06:04:30;;;;;;;25.27;14.55;;;;;;;;;;4944241;29;20039;-75
2022/10/07 06:07:16;;;;;;;32.58;14.52;;;;;;;;;;4944245;29;20044;-75
2022/10/07 06:13:07;;;;;;;28.50;13.60;;;;;;;;;;4939681;29;20048;-77
2022/10/07 06:15:53;;;;;;;26.35;12.60;;;;;;;;;;4943910;29;20055;-77
2022/10/07 06:18:39;;;;;;;26.13;11.52;;;;;;;;;;4930904;29;20409;-77
2022/10/07 06:21:26;;;;;;;21.08;11.95;;;;;;;;;;4945094;29;20043;-76
2022/10/07 06:24:13;;;;;;;26.90;10.70;;;;;;;;;;4943239;29;20055;-76
2022/10/07 06:26:59;;;;;;;17.45;10.73;;;;;;;;;;4944504;29;20055;-74
2022/10/07 06:29:46;;;;;;;23.65;10.70;;;;;;;;;;4944034;29;20043;-75
2022/10/07 06:32:31;;;;;;;16.23;10.82;;;;;;;;;;4938385;29;20047;-74
2022/10/07 06:35:18;;;;;;;27.30;10.32;;;;;;;;;;4943669;29;20493;-74
2022/10/07 06:38:05;;;;;;;15.73;9.30;;;;;;;;;;4943248;29;20051;-74
2022/10/07 06:41:00;;;;;;;19.42;11.07;;;;;;;;;;4943776;29;20040;-75
2022/10/07 06:43:48;;;;;;;13.75;8.85;;;;;;;;;;4943800;29;20051;-73
2022/10/07 06:46:33;;;;;;;18.08;9.80;;;;;;;;;;4938082;29;20051;-73
2022/10/07 06:49:18;;;;;;;19.05;8.73;;;;;;;;;;4938279;29;20052;-74
2022/10/07 06:52:04;;;;;;;15.50;7.63;;;;;;;;;;4943154;29;20052;-75
2022/10/07 06:54:50;;;;;;;11.27;7.20;;;;;;;;;;4943777;29;20491;-74
2022/10/07 06:57:36;;;;;;;12.00;8.00;;;;;;;;;;4943401;29;20048;-75
2022/10/07 07:00:22;;;;;;;15.82;8.38;;;;;;;;;;4937541;29;20497;-78
2022/10/07 07:03:09;;;;;;;15.15;9.32;;;;;;;;;;4943336;29;20067;-76
2022/10/07 07:05:55;;;;;;;19.83;10.52;;;;;;;;;;4942919;29;20060;-77
2022/10/07 07:08:48;;;;;;;17.40;9.80;;;;;;;;;;4943154;29;20047;-75
2022/10/07 07:11:39;;;;;;;20.15;10.18;;;;;;;;;;4943086;29;20497;-76
2022/10/07 07:14:40;;;;;;;19.30;10.15;;;;;;;;;;4942655;29;20048;-77
2022/10/07 07:17:29;;;;;;;19.15;9.98;;;;;;;;;;4937965;29;20051;-78
2022/10/07 07:20:15;;;;;;;17.58;9.85;;;;;;;;;;4942653;29;20044;-77
2022/10/07 07:23:01;;;;;;;18.63;10.18;;;;;;;;;;4943042;29;20059;-77
2022/10/07 07:25:46;;;;;;;19.75;10.27;;;;;;;;;;4943262;29;20048;-76
2022/10/07 07:28:32;;;;;;;22.75;10.52;;;;;;;;;;4937076;29;20051;-74
2022/10/07 07:31:19;;;;;;;23.90;10.68;;;;;;;;;;4942870;29;20051;-77
2022/10/07 07:34:10;;;;;;;18.45;10.35;;;;;;;;;;4936209;29;20044;-76
2022/10/07 07:36:56;;;;;;;20.85;11.93;;;;;;;;;;4942365;29;20047;-74
2022/10/07 07:39:47;;;;;;;24.55;11.60;;;;;;;;;;4942570;29;20040;-77
2022/10/07 07:42:36;;;;;;;24.38;12.20;;;;;;;;;;4936647;29;20059;-74
2022/10/07 07:45:23;;;;;;;19.25;11.93;;;;;;;;;;4942555;29;20048;-74
2022/10/07 07:48:10;;;;;;;21.38;11.27;;;;;;;;;;4942699;29;20044;-77
2022/10/07 07:50:56;;;;;;;24.92;10.80;;;;;;;;;;4936756;29;20043;-74
2022/10/07 07:53:43;;;;;;;15.82;8.90;;;;;;;;;;4942329;29;20048;-74
2022/10/07 07:56:30;;;;;;;16.38;9.77;;;;;;;;;;4941688;29;20489;-74
2022/10/07 07:59:16;;;;;;;17.60;9.50;;;;;;;;;;4943255;29;20048;-73
2022/10/07 08:02:06;;;;;;;16.20;8.50;;;;;;;;;;4943649;29;20466;-73
2022/10/07 08:04:53;;;;;;;18.27;9.80;;;;;;;;;;4942007;29;20055;-75
2022/10/07 08:07:39;;;;;;;18.17;9.25;;;;;;;;;;4940501;29;20043;-74
2022/10/07 08:10:24;;;;;;;17.85;10.00;;;;;;;;;;4941239;29;20055;-76
2022/10/07 08:13:10;;;;;;;20.00;10.52;;;;;;;;;;4936780;29;20055;-76
2022/10/07 08:15:58;;;;;;;19.17;9.90;;;;;;;;;;4941031;29;20039;-76
2022/10/07 08:18:45;;;;;;;14.80;8.68;;;;;;;;;;4940873;29;20051;-74
2022/10/07 08:21:31;;;;;;;14.45;8.88;;;;;;;;;;4942036;29;20039;-75
2022/10/07 08:24:18;;;;;;;19.08;8.85;;;;;;;;;;4942071;29;20055;-77
2022/10/07 08:27:04;;;;;;;15.45;8.48;;;;;;;;;;4942288;29;20051;-77
2022/10/07 08:29:49;;;;;;;13.80;8.77;;;;;;;;;;4937030;29;20056;-76
2022/10/07 08:32:35;;;;;;;17.15;8.40;;;;;;;;;;4941311;29;20044;-74
2022/10/07 08:35:19;;;;;;;22.25;12.00;;;;;;;;;;4942841;29;20052;-78
2022/10/07 08:38:05;;;;;;;18.45;11.52;;;;;;;;;;4935966;29;20405;-77
2022/10/07 08:40:52;;;;;;;32.50;19.50;;;;;;;;;;4936192;29;20044;-77
2022/10/07 08:43:43;;;;;;;31.45;15.60;;;;;;;;;;4936288;29;20044;-77
2022/10/07 08:46:34;;;;;;;26.73;11.35;;;;;;;;;;4940777;29;20048;-75
2022/10/07 08:49:29;;;;;;;18.60;10.57;;;;;;;;;;4936036;29;20044;-75
2022/10/07 08:52:40;;;;;;;;;;;;;;;;;;4943049;29;20055;-77
2022/10/07 08:55:30;;;;;;;16.98;9.20;;;;;;;;;;4935979;29;19919;-74
2022/10/07 08:58:49;;;;;;;16.08;8.40;;;;;;;;;;4941887;29;20052;-77
2022/10/07 09:01:52;;;;;;;12.98;7.95;;;;;;;;;;4935652;29;20047;-77
2022/10/07 09:04:37;;;;;;;14.70;7.50;;;;;;;;;;4935155;29;20055;-75
2022/10/07 09:07:41;;;;;;;14.70;7.88;;;;;;;;;;4935886;29;20052;-75
2022/10/07 09:10:41;;;;;;;15.73;8.60;;;;;;;;;;4936290;29;20043;-75
2022/10/07 09:13:32;;;;;;;11.18;7.78;;;;;;;;;;4936463;29;20044;-75
2022/10/07 09:16:34;;;;;;;10.43;6.75;;;;;;;;;;4941465;29;20489;-75
2022/10/07 09:19:38;;;;;;;17.00;7.60;;;;;;;;;;4936709;29;20040;-78
2022/10/07 09:22:38;;;;;;;15.95;7.10;;;;;;;;;;4936248;29;20048;-75
2022/10/07 09:25:27;;;;;;;14.25;6.07;;;;;;;;;;4942699;29;20051;-77
2022/10/07 09:28:15;;;;;;;12.27;6.15;;;;;;;;;;4935784;29;20487;-75
2022/10/07 09:31:01;;;;;;;11.85;5.60;;;;;;;;;;4936081;29;20043;-75
2022/10/07 09:33:51;;;;;;;8.35;4.88;;;;;;;;;;4936103;29;20048;-77
2022/10/07 09:37:12;;;;;;;12.13;6.25;;;;;;;;;;4935214;29;20491;-75
2022/10/07 09:40:29;;;;;;;18.70;6.85;;;;;;;;;;4935763;29;20040;-74
2022/10/07 09:43:18;;;;;;;15.25;7.47;;;;;;;;;;4923127;29;20497;-74
2022/10/07 09:46:03;;;;;;;9.80;6.82;;;;;;;;;;4935789;29;20052;-75
2022/10/07 09:48:51;;;;;;;13.23;6.63;;;;;;;;;;4942411;29;20043;-77
2022/10/07 09:51:38;;;;;;;9.80;6.35;;;;;;;;;;4935838;29;20044;-74
2022/10/07 09:54:26;;;;;;;11.07;5.35;;;;;;;;;;4935257;29;20051;-74
2022/10/07 09:57:34;;;;;;;8.85;5.18;;;;;;;;;;4935426;29;20406;-76
2022/10/07 10:00:23;;;;;;;11.48;5.18;;;;;;;;;;4939159;29;20047;-77
2022/10/07 10:03:09;;;;;;;8.68;5.57;;;;;;;;;;4939243;29;20051;-76
2022/10/07 10:06:05;;;;;;;8.60;5.47;;;;;;;;;;4945156;29;20401;-77
2022/10/07 10:08:55;;;;;;;6.03;3.40;;;;;;;;;;4939338;29;20040;-77
2022/10/07 10:11:41;;;;;;;6.65;3.47;;;;;;;;;;4944710;29;20481;-74
2022/10/07 10:14:52;;;;;;;7.70;2.75;;;;;;;;;;4938554;29;20048;-75
2022/10/07 10:17:39;;;;;;;9.35;2.58;;;;;;;;;;4944727;29;20410;-75
2022/10/07 10:20:30;;;;;;;3.35;2.65;;;;;;;;;;4938414;29;20039;-74
2022/10/07 10:23:34;;;;;;;8.68;4.10;;;;;;;;;;4945074;29;20052;-74
2022/10/07 10:26:36;;;;;;;6.20;4.03;;;;;;;;;;4944280;29;20048;-77
2022/10/07 10:29:28;;;;;;;10.52;3.97;;;;;;;;;;4938786;29;20043;-77
2022/10/07 10:33:00;;;;;;;7.25;4.20;;;;;;;;;;4938187;29;20414;-76
2022/10/07 10:35:55;;;;;;;4.82;2.83;;;;;;;;;;4919275;29;20485;-74
2022/10/07 10:38:49;;;;;;;6.05;3.30;;;;;;;;;;4938459;29;20047;-75
2022/10/07 10:41:45;;;;;;;5.43;3.20;;;;;;;;;;4938080;29;20064;-74
2022/10/07 10:44:35;;;;;;;7.60;3.40;;;;;;;;;;4938897;29;20390;-75
2022/10/07 10:47:39;;;;;;;7.28;3.22;;;;;;;;;;4937693;29;20047;-76
2022/10/07 10:50:50;;;;;;;4.75;3.10;;;;;;;;;;4937889;29;20052;-74
2022/10/07 10:53:35;;;;;;;7.57;3.60;;;;;;;;;;4937423;29;20497;-76
2022/10/07 10:56:57;;;;;;;6.60;3.58;;;;;;;;;;4943864;29;20043;-76
2022/10/07 10:59:54;;;;;;;6.30;3.33;;;;;;;;;;4937863;29;20052;-77
2022/10/07 11:02:43;;;;;;;6.93;3.78;;;;;;;;;;4937536;29;20108;-76
2022/10/07 11:05:35;;;;;;;4.97;2.90;;;;;;;;;;4937672;29;20051;-73
2022/10/07 11:08:30;;;;;;;5.10;3.10;;;;;;;;;;4937443;29;20044;-76
2022/10/07 11:11:21;;;;;;;14.02;3.10;;;;;;;;;;4937737;29;20413;-76
2022/10/07 11:14:15;;;;;;;7.30;3.22;;;;;;;;;;4938128;29;20051;-76
2022/10/07 11:17:04;;;;;;;5.15;3.25;;;;;;;;;;4943547;29;20055;-75
2022/10/07 11:20:03;;;;;;;6.40;3.60;;;;;;;;;;4937521;29;20047;-76
2022/10/07 11:23:15;;;;;;;5.18;3.08;;;;;;;;;;4943321;29;20047;-76
2022/10/07 11:26:13;;;;;;;8.77;3.22;;;;;;;;;;4937309;29;20056;-76
2022/10/07 11:29:04;;;;;;;4.50;3.40;;;;;;;;;;4937147;29;20040;-73
2022/10/07 11:32:12;;;;;;;4.25;3.00;;;;;;;;;;4937221;29;20055;-76
2022/10/07 11:35:16;;;;;;;4.72;3.50;;;;;;;;;;4943839;29;20040;-73
2022/10/07 11:38:13;;;;;;;7.50;3.53;;;;;;;;;;4942661;29;20150;-76
2022/10/07 11:41:06;;;;;;;6.35;2.88;;;;;;;;;;4937138;29;20052;-76
2022/10/07 11:43:55;;;;;;;6.68;3.88;;;;;;;;;;4942020;29;20035;-76
2022/10/07 11:46:46;;;;;;;8.82;3.40;;;;;;;;;;4943400;29;20063;-73
2022/10/07 11:49:41;;;;;;;8.13;3.38;;;;;;;;;;4937002;29;20064;-76
2022/10/07 11:52:30;;;;;;;5.65;3.00;;;;;;;;;;4942879;29;20052;-76
2022/10/07 11:55:25;;;;;;;4.82;3.28;;;;;;;;;;4937062;29;20047;-73
2022/10/07 11:58:32;;;;;;;4.80;3.40;;;;;;;;;;4936463;29;20043;-73
2022/10/07 12:01:28;;;;;;;6.65;3.83;;;;;;;;;;4936946;29;20056;-73
2022/10/07 12:04:28;;;;;;;8.40;3.33;;;;;;;;;;4942519;29;20052;-76
2022/10/07 12:07:41;;;;;;;6.60;2.92;;;;;;;;;;4936649;29;20055;-76
2022/10/07 12:10:32;;;;;;;5.95;3.33;;;;;;;;;;4936920;29;20406;-76
2022/10/07 12:13:19;;;;;;;5.07;2.80;;;;;;;;;;4935989;29;20044;-79
2022/10/07 12:16:23;;;;;;;8.75;3.33;;;;;;;;;;4936484;29;20039;-74
2022/10/07 12:19:14;;;;;;;3.85;2.80;;;;;;;;;;4936114;29;20051;-76
2022/10/07 12:22:02;;;;;;;6.22;2.70;;;;;;;;;;4935744;29;20052;-74
2022/10/07 12:25:27;;;;;;;8.10;3.33;;;;;;;;;;4936236;29;20039;-76
2022/10/07 12:28:41;;;;;;;5.37;2.87;;;;;;;;;;4941439;29;20043;-74
2022/10/07 12:31:29;;;;;;;4.57;2.80;;;;;;;;;;4935429;29;20052;-74
2022/10/07 12:34:36;;;;;;;11.50;3.50;;;;;;;;;;4935825;29;20052;-74
2022/10/07 12:37:39;;;;;;;6.95;3.30;;;;;;;;;;4936206;29;20040;-74
2022/10/07 12:40:28;;;;;;;5.25;3.17;;;;;;;;;;4935867;29;20047;-73
2022/10/07 12:43:24;;;;;;;5.18;2.80;;;;;;;;;;4936928;29;20056;-76
2022/10/07 12:46:15;;;;;;;4.70;3.25;;;;;;;;;;4942580;29;20390;-76
2022/10/07 12:49:23;;;;;;;5.20;2.95;;;;;;;;;;4935453;29;20044;-78
2022/10/07 12:52:18;;;;;;;4.13;2.88;;;;;;;;;;4942808;29;20043;-74
2022/10/07 12:55:12;;;;;;;8.45;2.67;;;;;;;;;;4941967;29;20051;-74
2022/10/07 12:59:46;;;;;;;3.60;2.47;;;;;;;;;;4936031;29;20425;-74
2022/10/07 13:01:02;;;;;;;;;;;;;;;;;;4936077;29;20047;-74
2022/10/07 13:04:09;;;;;;;5.18;2.22;;;;;;;;;;4935814;29;19914;-73
2022/10/07 13:07:29;;;;;;;4.70;2.58;;;;;;;;;;4935943;29;20501;-73
2022/10/07 13:10:28;;;;;;;10.18;2.90;;;;;;;;;;4935551;29;20035;-73
2022/10/07 13:13:19;;;;;;;6.63;2.72;;;;;;;;;;4936249;29;20040;-73
2022/10/07 13:16:15;;;;;;;11.00;2.90;;;;;;;;;;4935115;29;20056;-73
2022/10/07 13:19:09;;;;;;;9.82;2.83;;;;;;;;;;4936137;29;20044;-73
2022/10/07 13:22:18;;;;;;;4.68;2.55;;;;;;;;;;4942204;29;20486;-74
2022/10/07 13:25:06;;;;;;;5.32;2.58;;;;;;;;;;4935484;29;20489;-72
2022/10/07 13:27:54;;;;;;;5.28;2.65;;;;;;;;;;4935883;29;20044;-73
2022/10/07 13:30:42;;;;;;;4.28;2.38;;;;;;;;;;4941138;29;20052;-73
2022/10/07 13:33:30;;;;;;;7.40;3.03;;;;;;;;;;4938437;29;20044;-74
2022/10/07 13:36:28;;;;;;;6.13;3.17;;;;;;;;;;4939375;29;20489;-74
2022/10/07 13:39:21;;;;;;;4.70;2.80;;;;;;;;;;4945499;29;20059;-74
2022/10/07 13:42:10;;;;;;;5.45;2.20;;;;;;;;;;4939516;29;20047;-74
2022/10/07 13:45:01;;;;;;;5.03;2.42;;;;;;;;;;4945231;29;20056;-74
2022/10/07 13:47:47;;;;;;;4.72;2.42;;;;;;;;;;4945121;29;20051;-73
2022/10/07 13:50:35;;;;;;;5.97;2.55;;;;;;;;;;4939182;29;20048;-74
2022/10/07 13:53:25;;;;;;;6.30;2.53;;;;;;;;;;4938757;29;20044;-74
2022/10/07 13:56:23;;;;;;;7.40;2.67;;;;;;;;;;4939096;29;20055;-73
2022/10/07 13:59:16;;;;;;;10.48;4.25;;;;;;;;;;4938646;29;20059;-74
2022/10/07 14:02:11;;;;;;;10.43;5.18;;;;;;;;;;4939032;29;20489;-77
2022/10/07 14:05:02;;;;;;;8.75;3.10;;;;;;;;;;4939263;29;20043;-75
2022/10/07 14:07:52;;;;;;;8.15;2.75;;;;;;;;;;4938843;29;20036;-73
2022/10/07 14:10:50;;;;;;;6.85;3.20;;;;;;;;;;4945367;29;20047;-75
2022/10/07 14:13:36;;;;;;;4.78;2.72;;;;;;;;;;4938509;29;20489;-74
2022/10/07 14:16:22;;;;;;;4.00;2.88;;;;;;;;;;4938869;29;20043;-75
2022/10/07 14:19:15;;;;;;;5.43;3.10;;;;;;;;;;4938742;29;20055;-75
2022/10/07 14:22:03;;;;;;;6.20;3.95;;;;;;;;;;4938538;29;20059;-75
2022/10/07 14:24:59;;;;;;;9.25;3.95;;;;;;;;;;4938579;29;20040;-74
2022/10/07 14:27:45;;;;;;;6.05;3.60;;;;;;;;;;4943508;29;20401;-75
2022/10/07 14:37:18;;;;;;;9.27;5.30;;;;;;;;;;4938284;29;20036;-74
2022/10/07 14:40:19;;;;;;;8.43;4.40;;;;;;;;;;4944769;29;20413;-74
2022/10/07 14:43:04;;;;;;;11.07;4.28;;;;;;;;;;4937500;29;20055;-73
2022/10/07 14:45:50;;;;;;;8.48;5.10;;;;;;;;;;4938152;29;20052;-73
2022/10/07 14:48:36;;;;;;;5.70;4.28;;;;;;;;;;4937613;29;20047;-73
2022/10/07 14:51:25;;;;;;;8.95;4.40;;;;;;;;;;4938150;29;20036;-75
2022/10/07 14:54:11;;;;;;;17.08;8.30;;;;;;;;;;4938129;29;20052;-74
2022/10/07 14:56:56;;;;;;;10.85;6.35;;;;;;;;;;4937438;29;20040;-76
2022/10/07 14:59:42;;;;;;;15.13;6.70;;;;;;;;;;4938053;29;20039;-75
2022/10/07 15:02:28;;;;;;;22.83;9.13;;;;;;;;;;4937968;29;20051;-74
2022/10/07 15:05:13;;;;;;;26.45;9.68;;;;;;;;;;4937913;29;20055;-74
2022/10/07 15:07:59;;;;;;;20.63;9.32;;;;;;;;;;4944213;29;20051;-73
2022/10/07 15:10:45;;;;;;;18.13;8.55;;;;;;;;;;4944195;29;20052;-74
2022/10/07 15:13:31;;;;;;;14.57;6.90;;;;;;;;;;4944157;29;20047;-73
2022/10/07 15:16:22;;;;;;;11.18;6.25;;;;;;;;;;4937678;29;20047;-74
2022/10/07 15:19:08;;;;;;;13.50;7.10;;;;;;;;;;4938289;29;20481;-72
2022/10/07 15:21:55;;;;;;;20.98;10.80;;;;;;;;;;4937845;29;20481;-73
2022/10/07 15:24:40;;;;;;;13.15;8.05;;;;;;;;;;4944251;29;20047;-74
2022/10/07 15:27:26;;;;;;;9.93;7.03;;;;;;;;;;4943831;29;20040;-75
2022/10/07 15:30:12;;;;;;;18.00;6.47;;;;;;;;;;4944266;29;20385;-75
2022/10/07 15:32:57;;;;;;;17.95;7.95;;;;;;;;;;4937603;29;20043;-75
2022/10/07 15:35:44;;;;;;;17.60;8.98;;;;;;;;;;4943860;29;20048;-76
2022/10/07 15:38:30;;;;;;;18.02;9.50;;;;;;;;;;4942562;29;20043;-74
2022/10/07 15:41:35;;;;;;;17.30;10.10;;;;;;;;;;4937333;29;20043;-76
2022/10/07 15:44:21;;;;;;;16.08;8.60;;;;;;;;;;4943633;29;20047;-74
2022/10/07 15:47:07;;;;;;;15.15;8.10;;;;;;;;;;4943966;29;20051;-74
2022/10/07 15:49:53;;;;;;;19.88;8.32;;;;;;;;;;4941555;29;20051;-75
2022/10/07 15:52:38;;;;;;;19.30;8.43;;;;;;;;;;4937293;29;20044;-75
2022/10/07 15:55:23;;;;;;;15.88;7.65;;;;;;;;;;4938830;29;20048;-76
2022/10/07 15:58:09;;;;;;;16.77;9.57;;;;;;;;;;4937521;29;20048;-75
2022/10/07 16:01:05;;;;;;;17.55;10.32;;;;;;;;;;4937332;29;20047;-75
2022/10/07 16:03:50;;;;;;;16.42;9.27;;;;;;;;;;4943265;29;20051;-74
2022/10/07 16:06:37;;;;;;;17.88;10.00;;;;;;;;;;4936810;29;20047;-75
2022/10/07 16:09:23;;;;;;;34.97;22.42;;;;;;;;;;4943614;29;20043;-75
2022/10/07 16:12:08;;;;;;;23.75;15.90;;;;;;;;;;4937556;29;20048;-75
2022/10/07 16:14:55;;;;;;;24.50;13.32;;;;;;;;;;4945288;29;20055;-76
2022/10/07 16:17:40;;;;;;;132.10;64.57;;;;;;;;;;4944283;29;20039;-75
2022/10/07 16:20:26;;;;;;;180.32;106.78;;;;;;;;;;4937922;29;20047;-75
2022/10/07 16:23:12;;;;;;;91.18;50.00;;;;;;;;;;4943063;29;20039;-73
2022/10/07 16:26:05;;;;;;;81.82;40.85;;;;;;;;;;4942829;29;20044;-74
2022/10/07 16:31:56;;;;;;;52.05;26.77;;;;;;;;;;4943079;29;20047;-75
2022/10/07 16:34:43;;;;;;;56.28;28.52;;;;;;;;;;4942502;29;20051;-73
2022/10/07 16:37:29;;;;;;;78.38;40.45;;;;;;;;;;4936328;29;20056;-76
2022/10/07 16:40:15;;;;;;;164.25;84.78;;;;;;;;;;4936355;29;20051;-74
2022/10/07 16:43:00;;;;;;;217.77;105.90;;;;;;;;;;4943112;29;20048;-75
2022/10/07 16:45:46;;;;;;;136.90;79.32;;;;;;;;;;4935905;29;20048;-73
2022/10/07 16:48:37;;;;;;;144.35;83.28;;;;;;;;;;4936196;29;20343;-74
2022/10/07 16:51:25;;;;;;;183.70;110.18;;;;;;;;;;4935653;29;20039;-74
2022/10/07 16:54:14;;;;;;;263.50;151.52;;;;;;;;;;4936499;29;20044;-73
2022/10/07 16:56:59;;;;;;;183.85;102.70;;;;;;;;;;4936250;29;20040;-74
2022/10/07 16:59:44;;;;;;;115.50;64.53;;;;;;;;;;4936116;29;20047;-74